Time;durP1;ratioP1;P1;durP2;ratioP2;P2;SDS_P1;SDS_P2;PMS_P1;PMS_P2;Temp;Humidity;BMP_temperature;BMP_pressure;BME280_temperature;BME280_humidity;BME280_pressure;Samples;Min_cycle;Max_cycle;Signal;HPM_P1;HPM_P2
2023/11/14 00:00:59;;;;;;;24.30;4.90;;;12.30;99.90;;;;;;4987050;28;20456;-71
2023/11/14 00:03:28;;;;;;;26.90;4.63;;;12.30;99.90;;;;;;5003002;28;20980;-71
2023/11/14 00:05:55;;;;;;;16.60;4.33;;;12.30;99.90;;;;;;5002333;28;20487;-71
2023/11/14 00:08:22;;;;;;;23.00;4.60;;;12.30;99.90;;;;;;5000731;28;20548;-71
2023/11/14 00:10:52;;;;;;;20.40;5.03;;;12.30;99.90;;;;;;4982926;28;20544;-71
2023/11/14 00:13:19;;;;;;;23.50;4.43;;;12.30;99.90;;;;;;4998699;28;20484;-71
2023/11/14 00:18:29;;;;;;;26.23;4.80;;;12.30;99.90;;;;;;4999364;28;20448;-71
2023/11/14 00:20:57;;;;;;;21.17;4.10;;;12.30;99.90;;;;;;4999386;28;20456;-71
2023/11/14 00:23:25;;;;;;;17.00;4.50;;;12.30;99.90;;;;;;4999623;28;20448;-71
2023/11/14 00:25:57;;;;;;;20.23;4.10;;;12.30;99.90;;;;;;4999489;28;20447;-71
2023/11/14 00:28:23;;;;;;;22.13;4.17;;;12.30;99.90;;;;;;5000443;28;20472;-71
2023/11/14 00:30:51;;;;;;;17.33;4.87;;;12.30;99.90;;;;;;4998970;28;20514;-71
2023/11/14 00:33:17;;;;;;;24.63;4.57;;;12.20;99.90;;;;;;4999461;28;20488;-71
2023/11/14 00:35:44;;;;;;;24.83;4.10;;;12.20;99.90;;;;;;4998910;28;20443;-71
2023/11/14 00:38:12;;;;;;;21.77;4.30;;;12.20;99.90;;;;;;4999278;28;20452;-71
2023/11/14 00:40:39;;;;;;;20.53;4.50;;;12.30;99.90;;;;;;4997983;28;20468;-71
2023/11/14 00:43:09;;;;;;;31.87;4.30;;;12.30;99.90;;;;;;4997903;28;20459;-71
2023/11/14 00:45:36;;;;;;;19.57;4.03;;;12.30;99.90;;;;;;4998357;28;20490;-71
2023/11/14 00:48:03;;;;;;;20.40;4.43;;;12.30;99.90;;;;;;4997292;28;20448;-71
2023/11/14 00:50:31;;;;;;;25.37;4.50;;;12.30;99.90;;;;;;4998787;28;20507;-71
2023/11/14 00:52:58;;;;;;;20.80;4.23;;;12.30;99.90;;;;;;5014881;28;20484;-71
2023/11/14 00:55:25;;;;;;;20.50;5.37;;;12.20;99.90;;;;;;5006684;28;20474;-71
2023/11/14 00:57:52;;;;;;;27.53;5.17;;;12.30;99.90;;;;;;5007897;28;20448;-71
2023/11/14 01:00:24;;;;;;;20.07;5.07;;;12.30;99.90;;;;;;5005838;28;20478;-71
2023/11/14 01:02:53;;;;;;;25.93;5.70;;;12.30;99.90;;;;;;5005093;28;20428;-71
2023/11/14 01:05:23;;;;;;;22.33;5.03;;;12.30;99.90;;;;;;5002816;28;20472;-71
2023/11/14 01:07:50;;;;;;;39.77;5.00;;;12.40;99.90;;;;;;5003284;28;20452;-71
2023/11/14 01:10:16;;;;;;;17.00;4.77;;;12.30;99.90;;;;;;5001943;28;20837;-71
2023/11/14 01:12:45;;;;;;;19.07;5.07;;;12.30;99.90;;;;;;5001463;28;20482;-71
2023/11/14 01:15:13;;;;;;;20.17;4.90;;;12.30;99.90;;;;;;5001931;28;20498;-71
2023/11/14 01:17:41;;;;;;;21.57;4.30;;;12.30;99.90;;;;;;5001574;28;20443;-71
2023/11/14 01:20:12;;;;;;;30.53;5.30;;;12.30;99.90;;;;;;5001399;28;20988;-71
2023/11/14 01:22:39;;;;;;;25.07;4.70;;;12.30;99.90;;;;;;5001493;28;20446;-71
2023/11/14 01:25:07;;;;;;;16.63;5.70;;;12.20;99.90;;;;;;5001346;28;20452;-71
2023/11/14 01:27:34;;;;;;;20.60;4.10;;;12.20;99.90;;;;;;5001188;28;20472;-71
2023/11/14 01:30:02;;;;;;;22.00;6.00;;;12.20;99.90;;;;;;5001154;28;20473;-71
2023/11/14 01:32:29;;;;;;;25.13;4.97;;;12.20;99.90;;;;;;5001490;28;20480;-71
2023/11/14 01:35:00;;;;;;;31.43;5.70;;;12.20;99.90;;;;;;5000713;28;20531;-71
2023/11/14 01:37:27;;;;;;;21.73;5.10;;;12.20;99.90;;;;;;5000460;28;20448;-71
2023/11/14 01:39:56;;;;;;;28.37;4.40;;;12.20;99.90;;;;;;5000390;28;20531;-71
2023/11/14 01:42:23;;;;;;;20.30;4.00;;;12.10;99.90;;;;;;5000996;28;20454;-71
2023/11/14 01:44:49;;;;;;;27.30;5.10;;;12.20;99.90;;;;;;5001306;28;20452;-71
2023/11/14 01:47:17;;;;;;;20.43;3.97;;;12.20;99.90;;;;;;5000715;28;20440;-71
2023/11/14 01:49:45;;;;;;;25.07;5.07;;;12.20;99.90;;;;;;4998664;28;20818;-71
2023/11/14 01:52:14;;;;;;;31.60;6.53;;;12.20;99.90;;;;;;4999984;28;20480;-71
2023/11/14 01:54:41;;;;;;;24.70;5.93;;;12.20;99.90;;;;;;5000184;28;20498;-72
2023/11/14 01:57:11;;;;;;;15.13;3.93;;;12.20;99.90;;;;;;4999852;28;20448;-72
2023/11/14 01:59:38;;;;;;;20.40;4.60;;;12.20;99.90;;;;;;4999286;28;20989;-71
2023/11/14 02:02:08;;;;;;;18.73;4.40;;;12.10;99.90;;;;;;5000504;28;20456;-71
2023/11/14 02:04:37;;;;;;;17.77;4.10;;;12.20;99.90;;;;;;5000357;28;20455;-71
2023/11/14 02:07:05;;;;;;;26.13;4.20;;;12.10;99.90;;;;;;4999903;28;20476;-71
2023/11/14 02:09:37;;;;;;;22.73;4.10;;;12.10;99.90;;;;;;5000245;28;20500;-71
2023/11/14 02:12:05;;;;;;;26.63;5.30;;;12.10;99.90;;;;;;5000871;28;20502;-71
2023/11/14 02:14:39;;;;;;;18.43;4.27;;;12.10;99.90;;;;;;5001099;28;20448;-71
2023/11/14 02:17:16;;;;;;;24.60;4.60;;;12.20;99.90;;;;;;5000357;28;20424;-71
2023/11/14 02:19:45;;;;;;;16.80;4.03;;;12.20;99.90;;;;;;4998730;28;20475;-71
2023/11/14 02:22:12;;;;;;;17.20;4.33;;;12.20;99.90;;;;;;4999378;28;20444;-71
2023/11/14 02:24:48;;;;;;;13.63;4.70;;;12.20;99.90;;;;;;4999952;28;20444;-71
2023/11/14 02:27:15;;;;;;;26.03;4.93;;;12.20;99.90;;;;;;4999780;28;20433;-71
2023/11/14 02:29:44;;;;;;;21.40;4.47;;;12.20;99.90;;;;;;4999190;28;20514;-71
2023/11/14 02:32:10;;;;;;;28.20;4.50;;;12.20;99.90;;;;;;4998872;28;20480;-71
2023/11/14 02:34:37;;;;;;;23.40;5.30;;;12.10;99.90;;;;;;4999601;28;20452;-71
2023/11/14 02:37:05;;;;;;;22.43;4.20;;;12.10;99.90;;;;;;4999792;28;20484;-71
2023/11/14 02:39:33;;;;;;;19.87;4.60;;;12.10;99.90;;;;;;4999436;28;20526;-71
2023/11/14 02:42:01;;;;;;;21.90;5.63;;;12.10;99.90;;;;;;4999248;28;20444;-71
2023/11/14 02:44:28;;;;;;;32.67;5.53;;;12.10;99.90;;;;;;4998770;28;20456;-71
2023/11/14 02:46:58;;;;;;;24.87;4.50;;;12.10;99.90;;;;;;5000715;28;20453;-71
2023/11/14 02:49:39;;;;;;;28.97;5.07;;;12.20;99.90;;;;;;5000338;28;20475;-71
2023/11/14 02:52:07;;;;;;;18.90;4.30;;;12.10;99.90;;;;;;5001108;28;20432;-71
2023/11/14 02:54:34;;;;;;;21.93;4.30;;;12.10;99.90;;;;;;5000408;28;20801;-71
2023/11/14 02:57:07;;;;;;;21.20;4.87;;;12.20;99.90;;;;;;5000229;28;20820;-71
2023/11/14 02:59:34;;;;;;;28.70;5.50;;;12.10;99.90;;;;;;4997409;28;20512;-71
2023/11/14 03:02:04;;;;;;;20.70;4.70;;;12.20;99.90;;;;;;4999698;28;20452;-71
2023/11/14 03:04:34;;;;;;;16.27;3.83;;;12.20;99.90;;;;;;4999413;28;20515;-71
2023/11/14 03:07:03;;;;;;;27.77;5.33;;;12.20;99.90;;;;;;4998135;28;20942;-71
2023/11/14 03:09:30;;;;;;;23.37;5.33;;;12.20;99.90;;;;;;5008534;28;20448;-72
2023/11/14 03:11:59;;;;;;;21.10;4.50;;;12.20;99.90;;;;;;5016625;28;20459;-71
2023/11/14 03:14:43;;;;;;;27.27;4.77;;;12.20;99.90;;;;;;5012317;28;20420;-71
2023/11/14 03:17:12;;;;;;;18.67;5.00;;;12.10;99.90;;;;;;5006271;28;20820;-71
2023/11/14 03:19:43;;;;;;;23.40;5.30;;;12.20;99.90;;;;;;5004040;28;20464;-71
2023/11/14 03:22:11;;;;;;;22.47;4.07;;;12.20;99.90;;;;;;5005222;28;20476;-71
2023/11/14 03:24:39;;;;;;;17.33;4.17;;;12.10;99.90;;;;;;5004448;28;20436;-71
2023/11/14 03:27:07;;;;;;;25.27;4.57;;;12.10;99.90;;;;;;5003921;28;20459;-71
2023/11/14 03:29:35;;;;;;;20.63;5.30;;;12.20;99.90;;;;;;5002607;28;20460;-71
2023/11/14 03:32:03;;;;;;;22.13;5.10;;;12.10;99.90;;;;;;5001679;28;20946;-71
2023/11/14 03:34:30;;;;;;;18.73;4.30;;;12.10;99.90;;;;;;5003760;28;20494;-71
2023/11/14 03:36:57;;;;;;;18.93;3.90;;;12.10;99.90;;;;;;5004821;28;20452;-71
2023/11/14 03:39:26;;;;;;;18.93;4.40;;;12.00;99.90;;;;;;5001942;28;20504;-71
2023/11/14 03:41:55;;;;;;;32.37;5.63;;;12.00;99.90;;;;;;5007801;28;20429;-71
2023/11/14 03:44:33;;;;;;;25.87;4.50;;;12.10;99.90;;;;;;5011338;28;20533;-71
2023/11/14 03:47:00;;;;;;;24.97;5.00;;;12.10;99.90;;;;;;5009155;28;20427;-71
2023/11/14 03:49:32;;;;;;;31.67;5.60;;;12.10;99.90;;;;;;5002816;28;20503;-71
2023/11/14 03:51:59;;;;;;;26.17;4.67;;;12.10;99.90;;;;;;5001493;28;20424;-71
2023/11/14 03:54:26;;;;;;;22.60;4.50;;;12.10;99.90;;;;;;5000782;28;20488;-71
2023/11/14 03:56:54;;;;;;;23.17;4.80;;;12.10;99.90;;;;;;5000137;28;20452;-71
2023/11/14 03:59:25;;;;;;;18.53;4.27;;;12.20;99.90;;;;;;5001146;28;20471;-71
2023/11/14 04:01:51;;;;;;;20.40;5.63;;;12.10;99.90;;;;;;5001004;28;20465;-71
2023/11/14 04:04:19;;;;;;;28.53;5.00;;;12.10;99.90;;;;;;4999196;28;20444;-71
2023/11/14 04:06:48;;;;;;;18.47;4.57;;;12.20;99.90;;;;;;5000157;28;20459;-71
2023/11/14 04:09:14;;;;;;;20.87;5.07;;;12.20;99.90;;;;;;5000520;28;20894;-71
2023/11/14 04:11:47;;;;;;;19.57;4.37;;;12.10;99.90;;;;;;5000416;28;20447;-71
2023/11/14 04:14:14;;;;;;;32.13;6.97;;;12.10;99.90;;;;;;4999555;28;20483;-71
2023/11/14 04:16:42;;;;;;;14.83;4.20;;;12.20;99.90;;;;;;4999654;28;20448;-71
2023/11/14 04:19:10;;;;;;;18.93;4.10;;;12.20;99.90;;;;;;4999853;28;20476;-71
2023/11/14 04:21:38;;;;;;;19.30;5.07;;;12.20;99.90;;;;;;4999529;28;20451;-71
2023/11/14 04:24:07;;;;;;;34.43;6.10;;;12.20;99.90;;;;;;4997951;28;20455;-71
2023/11/14 04:26:35;;;;;;;20.07;4.60;;;12.20;99.90;;;;;;4998109;28;20449;-71
2023/11/14 04:29:03;;;;;;;19.87;4.67;;;12.20;99.90;;;;;;4999606;28;20522;-71
2023/11/14 04:31:30;;;;;;;21.93;3.87;;;12.20;99.90;;;;;;4997765;28;20950;-71
2023/11/14 04:33:57;;;;;;;19.07;4.63;;;12.30;99.90;;;;;;4998336;28;20479;-71
2023/11/14 04:36:23;;;;;;;20.53;5.60;;;12.30;99.90;;;;;;4997571;28;20832;-71
2023/11/14 04:38:51;;;;;;;21.40;4.47;;;12.30;99.90;;;;;;4996826;28;20833;-71
2023/11/14 04:41:22;;;;;;;24.40;4.70;;;12.30;99.90;;;;;;4998817;28;20448;-71
2023/11/14 04:43:51;;;;;;;28.80;4.43;;;12.30;99.90;;;;;;4996114;28;20531;-71
2023/11/14 04:46:18;;;;;;;25.23;5.37;;;12.40;99.90;;;;;;4996542;28;20537;-71
2023/11/14 04:48:45;;;;;;;22.80;4.57;;;12.30;99.90;;;;;;4996784;28;20451;-71
2023/11/14 04:51:13;;;;;;;28.10;5.97;;;12.40;99.90;;;;;;4997278;28;20488;-71
2023/11/14 04:53:40;;;;;;;22.27;4.80;;;12.40;99.90;;;;;;4997173;28;20473;-71
2023/11/14 04:56:12;;;;;;;17.33;4.10;;;12.40;99.90;;;;;;4999251;28;20451;-71
2023/11/14 04:58:44;;;;;;;18.40;4.17;;;12.40;99.90;;;;;;4998953;28;20428;-71
2023/11/14 05:01:15;;;;;;;22.87;4.53;;;12.40;99.90;;;;;;4998442;28;20800;-71
2023/11/14 05:03:42;;;;;;;17.40;4.30;;;12.40;99.90;;;;;;4997750;28;20428;-71
2023/11/14 05:06:09;;;;;;;20.63;4.70;;;12.40;99.90;;;;;;4997213;28;20456;-72
2023/11/14 05:08:35;;;;;;;21.13;3.60;;;12.40;99.90;;;;;;4996786;28;20455;-71
2023/11/14 05:11:05;;;;;;;21.97;4.10;;;12.50;99.90;;;;;;4996791;28;20447;-71
2023/11/14 05:13:37;;;;;;;19.27;3.90;;;12.40;99.90;;;;;;4996759;28;20546;-71
2023/11/14 05:16:06;;;;;;;18.40;4.37;;;12.40;99.90;;;;;;4981028;28;20445;-71
2023/11/14 05:18:34;;;;;;;15.00;4.10;;;12.40;99.90;;;;;;5006680;28;20435;-71
2023/11/14 05:21:02;;;;;;;16.30;4.07;;;12.40;99.90;;;;;;5008530;28;20535;-71
2023/11/14 05:23:31;;;;;;;20.33;4.40;;;12.50;99.90;;;;;;5003800;28;20825;-71
2023/11/14 05:25:59;;;;;;;25.80;5.50;;;12.50;99.90;;;;;;5001423;28;20443;-71
2023/11/14 05:28:26;;;;;;;15.70;4.23;;;12.50;99.90;;;;;;5000692;28;20444;-71
2023/11/14 05:30:53;;;;;;;21.60;4.73;;;12.50;99.90;;;;;;5000065;28;20468;-71
2023/11/14 05:33:21;;;;;;;27.93;5.37;;;12.50;99.90;;;;;;4998384;28;21013;-71
2023/11/14 05:35:54;;;;;;;21.03;4.00;;;12.50;99.90;;;;;;4997745;28;20448;-71
2023/11/14 05:38:21;;;;;;;15.53;3.87;;;12.50;99.90;;;;;;4998140;28;20440;-71
2023/11/14 05:40:48;;;;;;;17.87;4.60;;;12.50;99.90;;;;;;4997179;28;20480;-71
2023/11/14 05:43:15;;;;;;;20.80;4.70;;;12.50;99.90;;;;;;4998665;28;20463;-71
2023/11/14 05:45:42;;;;;;;25.53;5.10;;;12.50;99.90;;;;;;5000454;28;20452;-71
2023/11/14 05:48:09;;;;;;;28.00;4.97;;;12.50;99.90;;;;;;4998523;28;20455;-71
2023/11/14 05:50:37;;;;;;;20.83;4.83;;;12.60;99.90;;;;;;5000850;28;20464;-71
2023/11/14 05:53:04;;;;;;;22.83;4.20;;;12.60;99.90;;;;;;4999452;28;20456;-71
2023/11/14 05:55:34;;;;;;;19.50;3.40;;;12.60;99.90;;;;;;5001035;28;20448;-71
2023/11/14 05:58:02;;;;;;;18.13;5.40;;;12.60;99.90;;;;;;5000897;28;20428;-71
2023/11/14 06:00:29;;;;;;;15.33;4.40;;;12.60;99.90;;;;;;5000141;28;20475;-71
2023/11/14 06:02:59;;;;;;;18.27;4.90;;;12.60;99.90;;;;;;5000269;28;20456;-71
2023/11/14 06:05:26;;;;;;;18.77;4.20;;;12.60;99.90;;;;;;5000060;28;20551;-71
2023/11/14 06:07:57;;;;;;;26.67;6.60;;;12.60;99.90;;;;;;4999949;28;20454;-71
2023/11/14 06:10:24;;;;;;;22.43;5.23;;;12.60;99.90;;;;;;4998947;28;20468;-71
2023/11/14 06:12:51;;;;;;;15.33;4.30;;;12.60;99.90;;;;;;5000803;28;20459;-71
2023/11/14 06:15:21;;;;;;;26.00;4.47;;;12.50;99.90;;;;;;4999595;28;20572;-71
2023/11/14 06:17:48;;;;;;;22.27;5.27;;;12.60;99.90;;;;;;4999777;28;20469;-71
2023/11/14 06:20:15;;;;;;;17.63;4.47;;;12.50;99.90;;;;;;4999894;28;20465;-72
2023/11/14 06:22:42;;;;;;;14.27;4.10;;;12.50;99.90;;;;;;5014703;28;20460;-72
2023/11/14 06:25:11;;;;;;;22.10;5.30;;;12.50;99.90;;;;;;5011321;28;20447;-72
2023/11/14 06:27:38;;;;;;;24.43;4.90;;;12.60;99.90;;;;;;5006430;28;20976;-71
2023/11/14 06:30:08;;;;;;;22.67;4.70;;;12.50;99.90;;;;;;5004304;28;20468;-71
2023/11/14 06:32:39;;;;;;;20.27;5.10;;;12.50;99.90;;;;;;5004350;28;20831;-71
2023/11/14 06:35:08;;;;;;;16.77;4.07;;;12.50;99.90;;;;;;5002670;28;20554;-71
2023/11/14 06:37:36;;;;;;;21.47;5.07;;;12.50;99.90;;;;;;5002367;28;20458;-71
2023/11/14 06:40:03;;;;;;;17.80;3.60;;;12.50;99.90;;;;;;5001607;28;20492;-71
2023/11/14 06:42:32;;;;;;;20.90;4.13;;;12.50;99.90;;;;;;5001495;28;20455;-71
2023/11/14 06:44:59;;;;;;;20.93;4.40;;;12.40;99.90;;;;;;4999349;28;20469;-71
2023/11/14 06:47:27;;;;;;;20.80;4.23;;;12.50;99.90;;;;;;5000547;28;20456;-72
2023/11/14 06:49:53;;;;;;;29.90;5.20;;;12.50;99.90;;;;;;4999726;28;20512;-71
2023/11/14 06:52:21;;;;;;;19.77;4.60;;;12.50;99.90;;;;;;4999780;28;20445;-72
2023/11/14 06:54:47;;;;;;;19.10;4.03;;;12.50;99.90;;;;;;4998140;28;20492;-72
2023/11/14 06:57:17;;;;;;;20.27;4.20;;;12.50;99.90;;;;;;4998136;28;20452;-72
2023/11/14 06:59:52;;;;;;;24.23;5.17;;;12.50;99.90;;;;;;4999512;28;20468;-72
2023/11/14 07:02:21;;;;;;;23.50;4.87;;;12.50;99.90;;;;;;4999082;28;20451;-72
2023/11/14 07:04:49;;;;;;;17.50;4.63;;;12.50;99.90;;;;;;4999726;28;20452;-72
2023/11/14 07:07:16;;;;;;;17.30;3.67;;;12.50;99.90;;;;;;4999609;28;20452;-72
2023/11/14 07:09:43;;;;;;;21.00;4.00;;;12.50;99.90;;;;;;4998907;28;20841;-72
2023/11/14 07:12:11;;;;;;;17.70;3.93;;;12.50;99.90;;;;;;5015826;28;20528;-71
2023/11/14 07:14:38;;;;;;;17.83;5.80;;;12.60;99.90;;;;;;5010252;28;20481;-71
2023/11/14 07:17:06;;;;;;;22.73;4.17;;;12.70;99.90;;;;;;5009198;28;20448;-71
2023/11/14 07:19:34;;;;;;;18.57;3.83;;;12.60;99.90;;;;;;5008631;28;20472;-71
2023/11/14 07:22:01;;;;;;;30.20;5.00;;;12.60;99.90;;;;;;5006883;28;20444;-71
2023/11/14 07:24:30;;;;;;;18.30;3.70;;;12.70;99.90;;;;;;5007262;28;20448;-71
2023/11/14 07:26:56;;;;;;;19.17;5.03;;;12.60;99.90;;;;;;5007329;28;20471;-71
2023/11/14 07:29:23;;;;;;;16.33;4.07;;;12.70;99.90;;;;;;4998446;28;20544;-72
2023/11/14 07:31:50;;;;;;;16.73;3.77;;;12.60;99.90;;;;;;5008371;28;20451;-71
2023/11/14 07:34:19;;;;;;;19.83;4.87;;;12.70;99.90;;;;;;5008522;28;20484;-71
2023/11/14 07:36:46;;;;;;;20.57;4.33;;;12.70;99.90;;;;;;5006386;28;20487;-71
2023/11/14 07:39:13;;;;;;;22.30;4.20;;;12.80;99.90;;;;;;5003858;28;20472;-71
2023/11/14 07:41:40;;;;;;;18.50;4.03;;;12.70;99.90;;;;;;5004195;28;20523;-71
2023/11/14 07:44:09;;;;;;;12.80;3.77;;;12.70;99.90;;;;;;5003825;28;20471;-71
2023/11/14 07:46:37;;;;;;;20.30;4.33;;;12.80;99.90;;;;;;5001976;28;20503;-71
2023/11/14 07:49:04;;;;;;;20.83;6.03;;;12.80;99.90;;;;;;5002152;28;20468;-71
2023/11/14 07:51:36;;;;;;;21.63;3.90;;;12.80;99.90;;;;;;5000800;28;20452;-71
2023/11/14 07:54:03;;;;;;;17.50;4.53;;;12.80;99.90;;;;;;5002132;28;20475;-71
2023/11/14 07:56:30;;;;;;;17.57;3.60;;;12.80;99.90;;;;;;5001414;28;20448;-71
2023/11/14 07:58:57;;;;;;;18.60;4.47;;;12.80;99.90;;;;;;5000996;28;20479;-71
2023/11/14 08:01:23;;;;;;;14.87;4.23;;;12.80;99.90;;;;;;4999690;28;20942;-71
2023/11/14 08:03:52;;;;;;;18.63;3.80;;;12.90;99.90;;;;;;5000486;28;20565;-71
2023/11/14 08:06:20;;;;;;;18.77;3.53;;;12.90;99.90;;;;;;4999679;28;20466;-71
2023/11/14 08:08:49;;;;;;;19.43;6.30;;;13.00;99.90;;;;;;4998414;28;20515;-71
2023/11/14 08:11:16;;;;;;;11.73;3.23;;;13.00;99.90;;;;;;4998699;28;20496;-71
2023/11/14 08:13:43;;;;;;;23.77;4.90;;;13.00;99.90;;;;;;4998829;28;20507;-71
2023/11/14 08:16:10;;;;;;;19.10;3.60;;;13.10;99.90;;;;;;4998922;28;20448;-70
2023/11/14 08:18:37;;;;;;;17.00;3.70;;;13.10;99.90;;;;;;4998637;28;20451;-71
2023/11/14 08:21:05;;;;;;;18.63;5.17;;;13.10;99.90;;;;;;4998770;28;20448;-71
2023/11/14 08:23:31;;;;;;;14.47;3.67;;;13.20;99.90;;;;;;4997311;28;20539;-71
2023/11/14 08:26:00;;;;;;;18.07;4.50;;;13.20;99.90;;;;;;4998652;28;21070;-71
2023/11/14 08:28:26;;;;;;;22.93;4.90;;;13.20;99.90;;;;;;4997433;28;20453;-71
2023/11/14 08:30:56;;;;;;;14.93;4.00;;;13.20;99.90;;;;;;4998004;28;20495;-71
2023/11/14 08:33:23;;;;;;;17.73;5.03;;;13.30;99.90;;;;;;5000145;28;20452;-71
2023/11/14 08:35:50;;;;;;;15.13;3.70;;;13.20;99.90;;;;;;4998447;28;20487;-71
2023/11/14 08:38:23;;;;;;;23.60;4.60;;;13.20;99.90;;;;;;4997330;28;20946;-71
2023/11/14 08:40:50;;;;;;;14.30;3.30;;;13.30;99.90;;;;;;4999012;28;20852;-71
2023/11/14 08:43:20;;;;;;;14.20;3.77;;;13.30;99.90;;;;;;4996058;28;20452;-71
2023/11/14 08:45:49;;;;;;;18.33;3.50;;;13.30;99.90;;;;;;4996665;28;20452;-71
2023/11/14 08:48:17;;;;;;;17.37;4.53;;;13.40;99.90;;;;;;4996354;28;20479;-71
2023/11/14 08:50:47;;;;;;;15.47;3.70;;;13.40;99.90;;;;;;4996494;28;20472;-71
2023/11/14 08:53:14;;;;;;;17.60;4.03;;;13.40;99.90;;;;;;4997442;28;20491;-71
2023/11/14 08:55:42;;;;;;;13.80;4.37;;;13.40;99.90;;;;;;4995659;28;20483;-71
2023/11/14 08:58:09;;;;;;;19.93;4.30;;;13.50;99.90;;;;;;4996467;28;20452;-71
2023/11/14 09:00:38;;;;;;;13.33;3.50;;;13.50;99.90;;;;;;5004436;28;20472;-71
2023/11/14 09:03:05;;;;;;;15.67;3.97;;;13.50;99.90;;;;;;5008674;28;20503;-71
2023/11/14 09:05:35;;;;;;;21.70;4.27;;;13.40;99.90;;;;;;5005143;28;20467;-71
2023/11/14 09:08:03;;;;;;;11.27;3.60;;;13.40;99.90;;;;;;5003016;28;20459;-71
2023/11/14 09:10:30;;;;;;;16.53;4.40;;;13.40;99.90;;;;;;5001059;28;20883;-71
2023/11/14 09:12:57;;;;;;;18.07;3.57;;;13.40;99.90;;;;;;4999276;28;20456;-71
2023/11/14 09:15:24;;;;;;;13.43;3.80;;;13.40;99.90;;;;;;4998410;28;21009;-71
2023/11/14 09:17:52;;;;;;;20.43;4.40;;;13.50;99.90;;;;;;5000602;28;20444;-72
2023/11/14 09:20:22;;;;;;;13.60;3.30;;;13.50;99.90;;;;;;5002081;28;20476;-72
2023/11/14 09:22:50;;;;;;;28.10;3.70;;;13.40;99.90;;;;;;5002829;28;20550;-71
2023/11/14 09:25:19;;;;;;;14.30;3.67;;;13.50;99.90;;;;;;5001483;28;20950;-71
2023/11/14 09:27:45;;;;;;;15.87;3.90;;;13.50;99.90;;;;;;4985420;28;20451;-72
2023/11/14 09:30:15;;;;;;;15.33;3.63;;;13.50;99.90;;;;;;5000542;28;20472;-72
2023/11/14 09:32:41;;;;;;;19.17;4.57;;;13.50;99.90;;;;;;5000737;28;20940;-72
2023/11/14 09:35:10;;;;;;;18.10;4.07;;;13.50;99.90;;;;;;5000320;28;20484;-72
2023/11/14 09:37:37;;;;;;;19.30;4.33;;;13.50;99.90;;;;;;4999969;28;20455;-72
2023/11/14 09:40:06;;;;;;;22.43;3.67;;;13.50;99.90;;;;;;5006983;28;20448;-72
2023/11/14 09:42:33;;;;;;;20.97;3.50;;;13.50;99.90;;;;;;5017068;28;20460;-72
2023/11/14 09:45:04;;;;;;;15.80;3.87;;;13.50;99.90;;;;;;5009863;28;20444;-72
2023/11/14 09:47:34;;;;;;;17.87;4.63;;;13.50;99.90;;;;;;5007316;28;20456;-72
2023/11/14 09:50:02;;;;;;;16.60;3.43;;;13.50;99.90;;;;;;5005421;28;20456;-72
2023/11/14 09:52:31;;;;;;;15.37;3.73;;;13.50;99.90;;;;;;5003096;28;20455;-72
2023/11/14 09:54:59;;;;;;;15.17;2.70;;;13.50;99.90;;;;;;5001300;28;20484;-70
2023/11/14 09:57:27;;;;;;;18.87;4.13;;;13.60;99.90;;;;;;5000501;28;20819;-70
2023/11/14 09:59:54;;;;;;;14.00;4.17;;;13.50;99.90;;;;;;5000021;28;20468;-71
2023/11/14 10:02:24;;;;;;;9.97;3.60;;;13.50;99.90;;;;;;5000384;28;20448;-72
2023/11/14 10:04:51;;;;;;;13.53;3.73;;;13.50;99.90;;;;;;4999127;28;20569;-72
2023/11/14 10:07:20;;;;;;;14.23;3.97;;;13.50;99.90;;;;;;4999672;28;20493;-72
2023/11/14 10:09:52;;;;;;;13.50;3.23;;;13.60;99.90;;;;;;4999804;28;20498;-71
2023/11/14 10:12:33;;;;;;;15.67;2.90;;;13.60;99.90;;;;;;4998486;28;20439;-71
2023/11/14 10:15:03;;;;;;;11.50;4.23;;;13.50;99.90;;;;;;4999820;28;20530;-71
2023/11/14 10:17:42;;;;;;;11.80;3.57;;;13.50;99.90;;;;;;4999210;28;20989;-71
2023/11/14 10:20:11;;;;;;;19.13;3.07;;;13.40;99.90;;;;;;4999669;28;20836;-71
2023/11/14 10:22:49;;;;;;;17.73;3.13;;;13.30;99.90;;;;;;4999499;28;20456;-71
2023/11/14 10:25:30;;;;;;;15.97;3.50;;;13.40;99.90;;;;;;4999307;28;20436;-72
2023/11/14 10:28:04;;;;;;;19.50;3.93;;;13.40;99.90;;;;;;4999173;28;20467;-71
2023/11/14 10:30:48;;;;;;;13.17;3.43;;;13.40;99.90;;;;;;4997363;28;20465;-72
2023/11/14 10:33:19;;;;;;;14.10;2.93;;;13.40;99.90;;;;;;4997544;28;20483;-69
2023/11/14 10:35:46;;;;;;;10.30;3.13;;;13.40;99.90;;;;;;4998110;28;20472;-68
2023/11/14 10:38:16;;;;;;;14.93;3.60;;;13.30;99.90;;;;;;4996601;28;20492;-67
2023/11/14 10:40:47;;;;;;;12.20;3.13;;;13.20;99.90;;;;;;4997934;28;20492;-68
2023/11/14 10:43:14;;;;;;;13.93;2.90;;;13.20;99.90;;;;;;4997294;28;20450;-69
2023/11/14 10:45:41;;;;;;;9.43;3.10;;;13.20;99.90;;;;;;4996857;28;20960;-69
2023/11/14 10:48:23;;;;;;;15.90;4.63;;;13.10;99.90;;;;;;4998285;28;20806;-69
2023/11/14 10:50:51;;;;;;;13.80;3.53;;;13.00;99.90;;;;;;4997754;28;20468;-70
2023/11/14 10:53:20;;;;;;;14.50;3.50;;;13.00;99.90;;;;;;4997933;28;20502;-68
2023/11/14 10:55:50;;;;;;;19.73;4.47;;;13.00;99.90;;;;;;4998998;28;20487;-70
2023/11/14 10:58:21;;;;;;;14.87;3.00;;;12.90;99.90;;;;;;4996453;28;20476;-71
2023/11/14 11:00:51;;;;;;;12.03;3.67;;;13.00;99.90;;;;;;4997134;28;20472;-71
2023/11/14 11:03:21;;;;;;;11.60;3.57;;;13.00;99.90;;;;;;4997142;28;20452;-71
2023/11/14 11:05:48;;;;;;;13.60;3.40;;;13.10;99.90;;;;;;4997770;28;20452;-71
2023/11/14 11:08:16;;;;;;;11.90;3.63;;;13.30;99.90;;;;;;4998163;28;20825;-73
2023/11/14 11:10:43;;;;;;;13.77;3.03;;;13.50;99.90;;;;;;5003731;28;20471;-72
2023/11/14 11:13:15;;;;;;;18.53;4.00;;;13.70;99.90;;;;;;4997599;28;20448;-72
2023/11/14 11:15:48;;;;;;;15.93;3.50;;;13.90;99.90;;;;;;5005237;28;20475;-72
2023/11/14 11:18:17;;;;;;;10.23;3.30;;;14.00;99.90;;;;;;5005965;28;20444;-72
2023/11/14 11:20:44;;;;;;;16.50;3.50;;;14.00;99.90;;;;;;4987411;28;20476;-72
2023/11/14 11:23:12;;;;;;;12.40;2.83;;;13.90;99.90;;;;;;5004216;28;20444;-72
2023/11/14 11:25:41;;;;;;;8.73;3.07;;;13.80;99.90;;;;;;5002614;28;20444;-72
2023/11/14 11:28:39;;;;;;;10.60;3.03;;;13.70;99.90;;;;;;5003709;28;20456;-72
2023/11/14 11:31:14;;;;;;;16.50;3.20;;;13.60;99.90;;;;;;5004587;28;20460;-72
2023/11/14 11:33:42;;;;;;;13.67;3.17;;;13.50;99.90;;;;;;5003814;28;20499;-72
2023/11/14 11:36:29;;;;;;;15.87;3.67;;;13.50;99.90;;;;;;5002488;28;20523;-72
2023/11/14 11:39:04;;;;;;;13.80;3.30;;;13.50;99.90;;;;;;4996187;28;20472;-72
2023/11/14 11:41:34;;;;;;;11.40;2.80;;;13.40;99.90;;;;;;5015143;28;20484;-72
2023/11/14 11:44:07;;;;;;;11.90;3.17;;;13.40;99.90;;;;;;5005892;28;20451;-71
2023/11/14 11:46:54;;;;;;;12.73;2.50;;;13.20;99.90;;;;;;5000073;28;20858;-70
2023/11/14 11:49:31;;;;;;;4.80;1.90;;;13.10;99.90;;;;;;4999322;28;20476;-70
2023/11/14 11:52:21;;;;;;;6.93;2.00;;;13.00;99.90;;;;;;4998748;28;20436;-70
2023/11/14 11:54:49;;;;;;;6.30;1.47;;;13.00;99.90;;;;;;5009742;28;21011;-70
2023/11/14 11:57:22;;;;;;;5.70;1.57;;;12.90;99.90;;;;;;5002480;28;20448;-69
2023/11/14 12:00:23;;;;;;;7.60;1.93;;;12.90;99.90;;;;;;5002017;28;20536;-70
2023/11/14 12:02:52;;;;;;;6.63;1.40;;;13.00;99.90;;;;;;5001232;28;20441;-71
2023/11/14 12:05:19;;;;;;;4.90;1.20;;;13.20;99.90;;;;;;4999958;28;20452;-72
2023/11/14 12:07:47;;;;;;;8.33;1.50;;;13.30;99.90;;;;;;5000217;28;20521;-71
2023/11/14 12:10:24;;;;;;;4.23;1.60;;;13.40;99.90;;;;;;4999296;28;20495;-71
2023/11/14 12:12:57;;;;;;;14.63;3.03;;;13.40;99.90;;;;;;4999523;28;20429;-72
2023/11/14 12:15:28;;;;;;;10.70;2.47;;;13.30;99.90;;;;;;4997527;28;20484;-72
2023/11/14 12:18:02;;;;;;;12.20;2.50;;;13.30;99.90;;;;;;4996660;28;20444;-71
2023/11/14 12:20:33;;;;;;;11.27;2.60;;;13.40;99.90;;;;;;4997301;28;20507;-72
2023/11/14 12:23:00;;;;;;;12.73;2.70;;;13.40;99.90;;;;;;4996800;28;20506;-70
2023/11/14 12:25:26;;;;;;;12.97;3.87;;;13.30;99.90;;;;;;4995334;28;20440;-69
2023/11/14 12:28:00;;;;;;;10.27;2.73;;;13.30;99.90;;;;;;4995027;28;20445;-69
2023/11/14 12:30:29;;;;;;;10.73;2.77;;;13.20;99.90;;;;;;4995248;28;20479;-69
2023/11/14 12:33:09;;;;;;;10.20;2.90;;;13.10;99.90;;;;;;4995279;28;20444;-69
2023/11/14 12:35:57;;;;;;;16.60;2.77;;;13.10;99.90;;;;;;4995229;28;20559;-69
2023/11/14 12:38:35;;;;;;;8.60;2.03;;;13.00;99.90;;;;;;4995487;28;20436;-69
2023/11/14 12:41:24;;;;;;;5.60;1.30;;;12.90;99.90;;;;;;4994953;28;20914;-69
2023/11/14 12:43:52;;;;;;;5.80;1.90;;;12.80;99.90;;;;;;4994507;28;20453;-70
2023/11/14 12:46:24;;;;;;;9.27;1.83;;;12.70;99.90;;;;;;4995304;28;20455;-70
2023/11/14 12:49:16;;;;;;;3.63;1.40;;;12.60;99.90;;;;;;4995995;28;20491;-70
2023/11/14 12:51:53;;;;;;;4.20;1.13;;;12.60;99.90;;;;;;4995236;28;20436;-70